createdAt,value
2018-07-24T00:01:32.926Z,101549.47
2018-07-24T00:04:01.299Z,101549.06
2018-07-24T00:06:29.695Z,101549.97
2018-07-24T00:08:58.070Z,101552.16
2018-07-24T00:11:26.475Z,101544.71
2018-07-24T00:13:54.842Z,101552.16
2018-07-24T00:16:23.230Z,101549.98
2018-07-24T00:18:51.622Z,101549.13
2018-07-24T00:21:20.018Z,101549.17
2018-07-24T00:23:48.408Z,101546.55
2018-07-24T00:26:16.819Z,101553.64
2018-07-24T00:28:45.194Z,101545.74
2018-07-24T00:31:13.599Z,101541.84
2018-07-24T00:33:41.971Z,101537.48
2018-07-24T00:36:10.365Z,101539.25
2018-07-24T00:38:38.740Z,101540.58
2018-07-24T00:41:07.158Z,101532.72
2018-07-24T00:43:35.530Z,101533.17
2018-07-24T00:46:03.922Z,101532.80
2018-07-24T00:48:32.290Z,101537.22
2018-07-24T00:51:00.694Z,101539.90
2018-07-24T00:53:29.064Z,101539.91
2018-07-24T00:55:57.490Z,101532.50
2018-07-24T00:58:25.857Z,101532.95
2018-07-24T01:00:54.261Z,101532.55
2018-07-24T01:03:22.626Z,101526.42
2018-07-24T01:05:51.010Z,101527.78
2018-07-24T01:08:19.377Z,101529.10
2018-07-24T01:10:47.791Z,101530.00
2018-07-24T01:13:16.162Z,101529.59
2018-07-24T01:15:44.525Z,101534.45
2018-07-24T01:18:12.933Z,101536.19
2018-07-24T01:20:41.296Z,101536.23
2018-07-24T01:23:09.705Z,101538.91
2018-07-24T01:25:38.077Z,101545.94
2018-07-24T01:28:06.465Z,101545.08
2018-07-24T01:30:34.821Z,101531.47
2018-07-24T01:33:03.205Z,101537.59
2018-07-24T01:35:31.561Z,101529.28
2018-07-24T01:37:59.954Z,101527.97
2018-07-24T01:40:28.313Z,101527.96
2018-07-24T01:42:56.706Z,101530.11
2018-07-24T01:45:25.080Z,101524.42
2018-07-24T01:47:53.482Z,101515.62
2018-07-24T01:50:21.850Z,101517.80
2018-07-24T01:52:50.245Z,101512.08
2018-07-24T01:55:18.605Z,101508.53
2018-07-24T01:57:46.997Z,101512.94
2018-07-24T02:00:16.953Z,101513.80
2018-07-24T02:02:45.351Z,101510.70
2018-07-24T02:05:14.017Z,101512.44
2018-07-24T02:07:43.045Z,101514.16
2018-07-24T02:10:11.446Z,101516.80
2018-07-24T02:12:40.047Z,101512.84
2018-07-24T02:15:08.715Z,101514.57
2018-07-24T02:17:37.491Z,101513.70
2018-07-24T02:20:06.138Z,101511.48
2018-07-24T02:22:34.651Z,101501.84
2018-07-24T02:25:03.071Z,101515.88
2018-07-24T02:27:31.461Z,101505.39
2018-07-24T02:29:59.839Z,101508.89
2018-07-24T02:32:28.229Z,101520.34
2018-07-24T02:34:56.598Z,101519.02
2018-07-24T02:37:24.989Z,101519.94
2018-07-24T02:39:53.366Z,101518.20
2018-07-24T02:42:21.781Z,101514.30
2018-07-24T02:44:50.158Z,101510.84
2018-07-24T02:47:18.550Z,101513.06
2018-07-24T02:49:46.920Z,101508.27
2018-07-24T02:52:15.308Z,101512.66
2018-07-24T02:54:44.518Z,101517.97
2018-07-24T02:57:12.909Z,101509.67
2018-07-24T02:59:41.273Z,101507.08
2018-07-24T03:02:09.839Z,101513.66
2018-07-24T03:04:38.243Z,101511.94
2018-07-24T03:07:06.633Z,101517.20
2018-07-24T03:09:35.009Z,101519.42
2018-07-24T03:12:03.394Z,101519.02
2018-07-24T03:14:31.758Z,101510.29
2018-07-24T03:17:00.128Z,101514.69
2018-07-24T03:19:28.546Z,101518.67
2018-07-24T03:21:56.928Z,101516.05
2018-07-24T03:24:25.321Z,101513.86
2018-07-24T03:26:53.685Z,101516.05
2018-07-24T03:29:22.213Z,101518.27
2018-07-24T03:31:50.585Z,101513.45
2018-07-24T03:34:18.975Z,101515.63
2018-07-24T03:36:48.969Z,101521.76
2018-07-24T03:39:17.437Z,101516.50
2018-07-24T03:41:45.812Z,101519.09
2018-07-24T03:44:14.197Z,101520.85
2018-07-24T03:46:42.568Z,101523.94
2018-07-24T03:49:10.961Z,101520.85
2018-07-24T03:51:39.474Z,101521.27
2018-07-24T03:54:07.858Z,101520.81
2018-07-24T03:56:36.221Z,101521.23
2018-07-24T03:59:04.610Z,101530.44
2018-07-24T04:01:33.056Z,101531.27
2018-07-24T04:04:01.467Z,101534.77
2018-07-24T04:06:29.842Z,101533.86
2018-07-24T04:08:58.229Z,101527.23
2018-07-24T04:11:26.711Z,101523.52
2018-07-24T04:13:55.101Z,101517.16
2018-07-24T04:16:23.479Z,101521.31
2018-07-24T04:18:51.889Z,101515.37
2018-07-24T04:21:20.515Z,101517.82
2018-07-24T04:23:49.735Z,101516.72
2018-07-24T04:26:18.138Z,101518.15
2018-07-24T04:28:46.997Z,101519.59
2018-07-24T04:31:15.766Z,101519.16
2018-07-24T04:33:44.601Z,101524.79
2018-07-24T04:36:12.966Z,101526.55
2018-07-24T04:38:41.395Z,101525.78
2018-07-24T04:41:09.894Z,101521.80
2018-07-24T04:43:38.295Z,101520.53
2018-07-24T04:46:06.674Z,101514.99
2018-07-24T04:48:35.128Z,101526.23
2018-07-24T04:51:03.489Z,101516.88
2018-07-24T04:53:31.885Z,101518.02
2018-07-24T04:56:00.480Z,101520.09
2018-07-24T04:58:28.865Z,101513.48
2018-07-24T05:00:57.248Z,101522.73
2018-07-24T05:03:25.647Z,101520.07
2018-07-24T05:05:54.042Z,101521.85
2018-07-24T05:08:22.465Z,101530.20
2018-07-24T05:10:50.835Z,101528.87
2018-07-24T05:13:19.227Z,101531.06
2018-07-24T05:15:47.603Z,101531.03
2018-07-24T05:18:16.017Z,101531.44
2018-07-24T05:20:44.464Z,101535.77
2018-07-24T05:23:12.841Z,101530.39
2018-07-24T05:25:41.256Z,101535.61
2018-07-24T05:28:09.621Z,101535.06
2018-07-24T05:30:38.021Z,101536.34
2018-07-24T05:33:06.547Z,101538.44
2018-07-24T05:35:34.923Z,101542.70
2018-07-24T05:38:03.289Z,101544.84
2018-07-24T05:40:31.674Z,101542.51
2018-07-24T05:43:00.053Z,101545.87
2018-07-24T05:45:28.437Z,101550.14
2018-07-24T05:47:56.820Z,101542.55
2018-07-24T05:50:25.201Z,101540.18
2018-07-24T05:52:53.586Z,101536.95
2018-07-24T05:55:21.989Z,101539.39
2018-07-24T05:57:50.355Z,101539.66
2018-07-24T06:00:18.742Z,101534.14
2018-07-24T06:02:47.114Z,101531.64
2018-07-24T06:05:15.510Z,101537.95
2018-07-24T06:07:43.884Z,101540.28
2018-07-24T06:10:12.275Z,101530.75
2018-07-24T06:12:40.645Z,101533.08
2018-07-24T06:15:09.557Z,101530.16
2018-07-24T06:17:37.953Z,101532.11
2018-07-24T06:20:07.934Z,101527.06
2018-07-24T06:22:36.329Z,101536.06
2018-07-24T06:25:04.780Z,101532.24
2018-07-24T06:27:33.202Z,101536.30
2018-07-24T06:30:01.605Z,101532.86
2018-07-24T06:32:29.983Z,101533.39
2018-07-24T06:34:58.394Z,101526.02
2018-07-24T06:37:26.771Z,101525.25
2018-07-24T06:39:55.162Z,101529.75
2018-07-24T06:42:23.530Z,101534.73
2018-07-24T06:44:51.923Z,101536.22
2018-07-24T06:47:20.304Z,101537.66
2018-07-24T06:49:48.703Z,101538.72
2018-07-24T06:52:17.078Z,101539.84
2018-07-24T06:54:45.534Z,101543.62
2018-07-24T06:57:13.898Z,101541.55
2018-07-24T06:59:42.294Z,101544.86
2018-07-24T07:02:10.738Z,101534.92
2018-07-24T07:04:39.126Z,101537.37
2018-07-24T07:07:07.512Z,101540.72
2018-07-24T07:09:35.916Z,101538.28
2018-07-24T07:12:04.297Z,101541.59
2018-07-24T07:14:32.691Z,101541.73
2018-07-24T07:17:01.060Z,101545.03
2018-07-24T07:19:29.454Z,101541.68
2018-07-24T07:21:57.845Z,101548.45
2018-07-24T07:24:26.214Z,101546.34
2018-07-24T07:26:54.601Z,101542.08
2018-07-24T07:29:22.970Z,101540.02
2018-07-24T07:31:51.359Z,101539.23
2018-07-24T07:34:19.735Z,101540.67
2018-07-24T07:36:48.183Z,101533.64
2018-07-24T07:39:16.642Z,101535.03
2018-07-24T07:41:44.989Z,101532.55
2018-07-24T07:44:13.383Z,101530.95
2018-07-24T07:46:41.802Z,101535.94
2018-07-24T07:49:10.281Z,101534.23
2018-07-24T07:51:38.670Z,101524.09
2018-07-24T07:54:07.041Z,101527.22
2018-07-24T07:56:35.435Z,101529.63
2018-07-24T07:59:03.802Z,101523.09
2018-07-24T08:01:32.195Z,101518.78
2018-07-24T08:04:00.589Z,101519.82
2018-07-24T08:06:29.043Z,101522.55
2018-07-24T08:08:57.409Z,101518.31
2018-07-24T08:11:25.802Z,101519.30
2018-07-24T08:13:54.189Z,101523.09
2018-07-24T08:16:22.574Z,101516.20
2018-07-24T08:18:50.966Z,101517.80
2018-07-24T08:21:19.353Z,101515.46
2018-07-24T08:23:47.722Z,101506.35
2018-07-24T08:26:16.115Z,101512.66
2018-07-24T08:28:44.556Z,101513.69
2018-07-24T08:31:12.958Z,101513.77
2018-07-24T08:33:41.388Z,101507.61
2018-07-24T08:36:09.757Z,101505.20
2018-07-24T08:38:38.129Z,101511.39
2018-07-24T08:41:06.539Z,101500.52
2018-07-24T08:43:34.910Z,101500.47
2018-07-24T08:46:03.327Z,101498.95
2018-07-24T08:48:31.708Z,101498.19
2018-07-24T08:51:00.103Z,101496.35
2018-07-24T08:53:28.721Z,101498.95
2018-07-24T08:55:56.893Z,101496.45
2018-07-24T08:58:25.267Z,101495.96
2018-07-24T09:00:53.659Z,101495.81
2018-07-24T09:03:22.035Z,101492.05
2018-07-24T09:05:50.460Z,101488.19
2018-07-24T09:08:18.829Z,101484.49
2018-07-24T09:10:47.277Z,101485.25
2018-07-24T09:13:15.659Z,101482.88
2018-07-24T09:15:44.025Z,101490.66
2018-07-24T09:18:12.445Z,101482.33
2018-07-24T09:20:40.839Z,101482.94
2018-07-24T09:23:09.227Z,101483.69
2018-07-24T09:25:37.604Z,101486.23
2018-07-24T09:28:06.230Z,101481.44
2018-07-24T09:30:34.642Z,101482.95
2018-07-24T09:33:03.029Z,101478.31
2018-07-24T09:35:31.410Z,101478.34
2018-07-24T09:37:59.801Z,101473.45
2018-07-24T09:40:28.213Z,101467.98
2018-07-24T09:42:56.642Z,101473.53
2018-07-24T09:45:25.028Z,101472.30
2018-07-24T09:47:53.432Z,101473.70
2018-07-24T09:50:21.801Z,101470.61
2018-07-24T09:52:50.214Z,101471.58
2018-07-24T09:55:18.646Z,101467.98
2018-07-24T09:57:47.044Z,101464.15
2018-07-24T10:00:15.415Z,101460.27
2018-07-24T10:02:43.830Z,101462.89
2018-07-24T10:05:12.198Z,101458.80
2018-07-24T10:07:40.594Z,101447.67
2018-07-24T10:10:08.971Z,101454.78
2018-07-24T10:12:37.425Z,101454.08
2018-07-24T10:15:06.051Z,101449.14
2018-07-24T10:17:34.460Z,101453.45
2018-07-24T10:20:02.862Z,101449.77
2018-07-24T10:22:31.262Z,101456.49
2018-07-24T10:24:59.662Z,101456.19
2018-07-24T10:27:28.061Z,101456.47
2018-07-24T10:29:56.449Z,101446.38
2018-07-24T10:32:24.863Z,101440.63
2018-07-24T10:34:53.342Z,101441.58
2018-07-24T10:37:21.746Z,101440.74
2018-07-24T10:39:50.121Z,101443.15
2018-07-24T10:42:18.533Z,101446.98
2018-07-24T10:44:46.910Z,101447.83
2018-07-24T10:47:15.312Z,101441.33
2018-07-24T10:49:43.701Z,101436.23
2018-07-24T10:52:12.122Z,101435.66
2018-07-24T10:54:40.490Z,101444.19
2018-07-24T10:57:08.890Z,101432.49
2018-07-24T10:59:37.267Z,101432.33
2018-07-24T11:02:05.669Z,101432.20
2018-07-24T11:04:34.079Z,101429.81
2018-07-24T11:07:02.514Z,101428.77
2018-07-24T11:09:30.886Z,101431.17
2018-07-24T11:11:59.338Z,101428.50
2018-07-24T11:14:27.738Z,101419.98
2018-07-24T11:16:56.117Z,101422.98
2018-07-24T11:19:24.552Z,101422.42
2018-07-24T11:21:52.961Z,101413.13
2018-07-24T11:24:21.392Z,101415.72
2018-07-24T11:26:49.778Z,101424.63
2018-07-24T11:29:18.177Z,101422.51
2018-07-24T11:31:46.555Z,101409.30
2018-07-24T11:34:14.973Z,101407.67
2018-07-24T11:36:43.355Z,101405.73
2018-07-24T11:41:52.139Z,101406.47
2018-07-24T11:44:21.010Z,101406.21
2018-07-24T11:46:49.394Z,101398.88
2018-07-24T11:49:17.810Z,101407.11
2018-07-24T11:51:46.203Z,101405.53
2018-07-24T11:54:14.623Z,101402.98
2018-07-24T11:56:43.002Z,101398.73
2018-07-24T11:59:11.397Z,101395.11
2018-07-24T12:01:39.767Z,101397.30
2018-07-24T12:04:08.166Z,101392.78
2018-07-24T12:06:36.552Z,101394.92
2018-07-24T12:09:08.397Z,101398.42
2018-07-24T12:11:36.793Z,101395.53
2018-07-24T12:14:05.214Z,101385.19
2018-07-24T12:16:33.602Z,101396.91
2018-07-24T12:19:02.022Z,101392.02
2018-07-24T12:21:30.406Z,101388.36
2018-07-24T12:23:58.805Z,101388.69
2018-07-24T12:26:27.177Z,101382.84
2018-07-24T12:28:55.575Z,101379.50
2018-07-24T12:31:23.959Z,101385.23
2018-07-24T12:33:52.382Z,101387.92
2018-07-24T12:36:20.754Z,101379.71
2018-07-24T12:38:49.149Z,101377.69
2018-07-24T12:41:17.525Z,101370.69
2018-07-24T12:43:45.926Z,101370.85
2018-07-24T12:46:14.416Z,101369.51
2018-07-24T12:48:42.821Z,101368.16
2018-07-24T12:51:11.234Z,101362.41
2018-07-24T12:53:39.645Z,101366.79
2018-07-24T12:56:08.056Z,101359.89
2018-07-24T12:58:36.505Z,101364.33
2018-07-24T13:01:04.898Z,101360.16
2018-07-24T13:03:33.466Z,101357.87
2018-07-24T13:06:01.877Z,101350.66
2018-07-24T13:08:30.274Z,101347.41
2018-07-24T13:10:58.699Z,101350.23
2018-07-24T13:13:27.038Z,101344.38
2018-07-24T13:15:55.438Z,101344.52
2018-07-24T13:18:23.824Z,101350.36
2018-07-24T13:20:52.238Z,101345.17
2018-07-24T13:23:20.622Z,101340.61
2018-07-24T13:25:49.103Z,101342.98
2018-07-24T13:28:17.481Z,101337.70
2018-07-24T13:30:45.890Z,101334.42
2018-07-24T13:33:14.266Z,101338.55
2018-07-24T13:35:42.685Z,101334.38
2018-07-24T13:38:11.064Z,101337.02
2018-07-24T13:40:39.575Z,101345.48
2018-07-24T13:43:08.067Z,101341.98
2018-07-24T13:45:36.471Z,101335.17
2018-07-24T13:48:04.850Z,101337.33
2018-07-24T13:50:33.251Z,101327.75
2018-07-24T13:53:01.675Z,101328.23
2018-07-24T13:55:30.145Z,101330.59
2018-07-24T13:57:58.513Z,101326.15
2018-07-24T14:00:26.901Z,101329.31
2018-07-24T14:02:55.281Z,101321.20
2018-07-24T14:05:23.673Z,101315.37
2018-07-24T14:07:52.042Z,101319.14
2018-07-24T14:10:20.598Z,101319.47
2018-07-24T14:12:48.970Z,101315.86
2018-07-24T14:15:17.362Z,101323.53
2018-07-24T14:17:45.758Z,101318.80
2018-07-24T14:20:14.196Z,101318.02
2018-07-24T14:22:42.608Z,101316.15
2018-07-24T14:25:11.019Z,101319.91
2018-07-24T14:27:39.402Z,101313.18
2018-07-24T14:30:08.317Z,101317.80
2018-07-24T14:32:36.690Z,101319.17
2018-07-24T14:35:05.095Z,101324.39
2018-07-24T14:37:33.473Z,101322.02
2018-07-24T14:40:01.889Z,101324.03
2018-07-24T14:42:30.271Z,101319.84
2018-07-24T14:44:58.671Z,101323.32
2018-07-24T14:47:27.049Z,101327.25
2018-07-24T14:49:55.454Z,101323.65
2018-07-24T14:52:23.849Z,101328.46
2018-07-24T14:54:52.281Z,101320.40
2018-07-24T14:57:20.656Z,101322.16
2018-07-24T14:59:49.059Z,101322.54
2018-07-24T15:02:17.450Z,101311.45
2018-07-24T15:04:45.905Z,101321.63
2018-07-24T15:07:14.262Z,101309.56
2018-07-24T15:09:42.630Z,101312.25
2018-07-24T15:12:11.136Z,101316.36
2018-07-24T15:14:39.619Z,101311.97
2018-07-24T15:17:08.028Z,101311.48
2018-07-24T15:19:36.454Z,101313.59
2018-07-24T15:22:04.867Z,101312.45
2018-07-24T15:24:33.246Z,101308.36
2018-07-24T15:27:01.660Z,101309.58
2018-07-24T15:29:30.677Z,101311.55
2018-07-24T15:31:59.092Z,101309.17
2018-07-24T15:34:27.653Z,101307.21
2018-07-24T15:36:55.910Z,101305.03
2018-07-24T15:39:24.282Z,101310.33
2018-07-24T15:41:52.669Z,101311.41
2018-07-24T15:44:21.193Z,101309.88
2018-07-24T15:46:49.636Z,101309.38
2018-07-24T15:49:18.011Z,101305.08
2018-07-24T15:51:46.431Z,101302.80
2018-07-24T15:54:14.815Z,101304.72
2018-07-24T15:56:43.218Z,101310.05
2018-07-24T15:59:11.686Z,101309.41
2018-07-24T16:01:40.093Z,101307.67
2018-07-24T16:04:08.478Z,101308.06
2018-07-24T16:06:36.896Z,101311.61
2018-07-24T16:09:08.303Z,101315.14
2018-07-24T16:11:36.708Z,101310.48
2018-07-24T16:14:05.116Z,101304.28
2018-07-24T16:16:33.519Z,101310.33
2018-07-24T16:19:02.090Z,101309.38
2018-07-24T16:21:30.485Z,101312.73
2018-07-24T16:23:58.877Z,101309.41
2018-07-24T16:26:27.317Z,101308.19
2018-07-24T16:28:55.685Z,101307.84
2018-07-24T16:31:24.094Z,101304.78
2018-07-24T16:33:52.469Z,101304.23
2018-07-24T16:36:20.861Z,101297.89
2018-07-24T16:38:49.247Z,101299.91
2018-07-24T16:41:17.661Z,101305.20
2018-07-24T16:43:46.051Z,101305.50
2018-07-24T16:46:14.462Z,101305.34
2018-07-24T16:48:42.842Z,101310.27
2018-07-24T16:51:11.250Z,101299.75
2018-07-24T16:53:39.631Z,101305.35
2018-07-24T16:56:08.047Z,101306.42
2018-07-24T16:58:36.439Z,101308.67
2018-07-24T17:01:04.856Z,101298.67
2018-07-24T17:03:33.229Z,101305.08
2018-07-24T17:06:01.630Z,101299.70
2018-07-24T17:08:30.014Z,101304.00
2018-07-24T17:10:58.394Z,101300.43
2018-07-24T17:13:26.806Z,101299.39
2018-07-24T17:15:55.182Z,101298.94
2018-07-24T17:18:23.586Z,101301.06
2018-07-24T17:20:51.978Z,101301.72
2018-07-24T17:23:20.414Z,101299.79
2018-07-24T17:25:49.047Z,101303.56
2018-07-24T17:28:17.458Z,101304.58
2018-07-24T17:30:45.837Z,101308.27
2018-07-24T17:33:14.237Z,101309.94
2018-07-24T17:35:42.696Z,101310.86
2018-07-24T17:38:11.074Z,101312.70
2018-07-24T17:40:39.549Z,101321.66
2018-07-24T17:43:07.990Z,101317.19
2018-07-24T17:45:36.409Z,101311.84
2018-07-24T17:48:04.805Z,101320.16
2018-07-24T17:50:33.242Z,101316.86
2018-07-24T17:53:01.616Z,101323.45
2018-07-24T17:55:29.999Z,101324.81
2018-07-24T17:57:58.393Z,101324.41
2018-07-24T18:00:27.056Z,101330.17
2018-07-24T18:02:55.570Z,101330.98
2018-07-24T18:05:23.943Z,101331.57
2018-07-24T18:07:52.349Z,101333.95
2018-07-24T18:10:20.790Z,101335.02
2018-07-24T18:12:49.175Z,101337.91
2018-07-24T18:15:17.548Z,101337.52
2018-07-24T18:17:45.933Z,101340.62
2018-07-24T18:20:14.426Z,101341.05
2018-07-24T18:22:42.831Z,101337.94
2018-07-24T18:25:11.196Z,101341.03
2018-07-24T18:27:39.616Z,101338.78
2018-07-24T18:30:07.994Z,101343.20
2018-07-24T18:32:36.393Z,101340.05
2018-07-24T18:35:04.766Z,101340.43
2018-07-24T18:37:33.167Z,101339.91
2018-07-24T18:40:01.542Z,101338.88
2018-07-24T18:42:29.948Z,101337.95
2018-07-24T18:44:58.381Z,101340.64
2018-07-24T18:47:26.758Z,101346.83
2018-07-24T18:49:55.134Z,101347.22
2018-07-24T18:52:23.523Z,101340.50
2018-07-24T18:54:51.933Z,101348.77
2018-07-24T18:57:20.339Z,101350.55
2018-07-24T18:59:48.722Z,101353.22
2018-07-24T19:02:17.117Z,101350.94
2018-07-24T19:04:45.492Z,101351.31
2018-07-24T19:07:13.877Z,101354.04
2018-07-24T19:09:42.238Z,101353.14
2018-07-24T19:12:10.738Z,101354.36
2018-07-24T19:14:39.151Z,101353.78
2018-07-24T19:17:07.582Z,101356.72
2018-07-24T19:19:35.999Z,101351.75
2018-07-24T19:22:04.393Z,101356.97
2018-07-24T19:24:32.787Z,101351.99
2018-07-24T19:27:01.177Z,101354.95
2018-07-24T19:29:29.570Z,101362.41
2018-07-24T19:31:57.941Z,101357.91
2018-07-24T19:34:26.355Z,101354.23
2018-07-24T19:36:54.744Z,101361.56
2018-07-24T19:39:23.149Z,101366.23
2018-07-24T19:41:51.514Z,101371.84
2018-07-24T19:44:19.906Z,101373.84
2018-07-24T19:46:48.269Z,101371.91
2018-07-24T19:49:16.674Z,101372.15
2018-07-24T19:51:45.133Z,101368.91
2018-07-24T19:54:13.536Z,101369.67
2018-07-24T19:56:41.901Z,101366.56
2018-07-24T19:59:10.301Z,101366.86
2018-07-24T20:01:38.691Z,101370.70
2018-07-24T20:04:07.091Z,101370.94
2018-07-24T20:06:35.541Z,101369.92
2018-07-24T20:09:06.003Z,101366.59
2018-07-24T20:11:34.374Z,101369.37
2018-07-24T20:14:02.766Z,101367.29
2018-07-24T20:16:31.150Z,101368.83
2018-07-24T20:18:59.577Z,101370.73
2018-07-24T20:21:27.969Z,101367.81
2018-07-24T20:23:56.353Z,101370.13
2018-07-24T20:26:24.719Z,101364.91
2018-07-24T20:28:53.172Z,101370.31
2018-07-24T20:31:21.513Z,101372.67
2018-07-24T20:33:49.915Z,101363.41
2018-07-24T20:36:18.286Z,101372.37
2018-07-24T20:38:46.714Z,101374.26
2018-07-24T20:41:15.083Z,101368.66
2018-07-24T20:43:43.480Z,101369.72
2018-07-24T20:46:11.858Z,101374.74
2018-07-24T20:48:40.261Z,101377.70
2018-07-24T20:51:08.723Z,101370.02
2018-07-24T20:53:37.268Z,101380.34
2018-07-24T20:56:05.711Z,101378.75
2018-07-24T20:58:34.369Z,101370.91
2018-07-24T21:01:02.743Z,101376.73
2018-07-24T21:03:31.183Z,101377.28
2018-07-24T21:05:59.597Z,101379.13
2018-07-24T21:08:28.115Z,101375.69
2018-07-24T21:10:56.489Z,101376.20
2018-07-24T21:13:24.862Z,101374.17
2018-07-24T21:15:53.253Z,101373.52
2018-07-24T21:18:21.627Z,101370.17
2018-07-24T21:20:50.044Z,101371.16
2018-07-24T21:23:18.454Z,101372.25
2018-07-24T21:25:46.846Z,101374.20
2018-07-24T21:28:15.217Z,101371.78
2018-07-24T21:30:43.613Z,101379.08
2018-07-24T21:33:11.981Z,101375.72
2018-07-24T21:35:40.374Z,101375.76
2018-07-24T21:38:08.746Z,101375.95
2018-07-24T21:40:37.147Z,101378.75
2018-07-24T21:43:05.521Z,101376.30
2018-07-24T21:45:34.032Z,101376.01
2018-07-24T21:48:02.398Z,101372.69
2018-07-24T21:50:30.789Z,101379.07
2018-07-24T21:52:59.166Z,101378.36
2018-07-24T21:55:27.570Z,101375.39
2018-07-24T21:57:56.001Z,101373.78
2018-07-24T22:00:24.454Z,101376.61
2018-07-24T22:02:52.813Z,101373.23
2018-07-24T22:05:21.217Z,101379.11
2018-07-24T22:07:49.595Z,101385.02
2018-07-24T22:10:22.478Z,101380.79
2018-07-24T22:12:51.753Z,101387.55
2018-07-24T22:15:25.278Z,101377.66
2018-07-24T22:17:54.031Z,101384.48
2018-07-24T22:20:22.758Z,101385.16
2018-07-24T22:22:51.618Z,101386.25
2018-07-24T22:25:20.010Z,101385.52
2018-07-24T22:27:48.377Z,101386.94
2018-07-24T22:30:16.779Z,101387.91
2018-07-24T22:32:45.161Z,101391.54
2018-07-24T22:35:13.555Z,101394.72
2018-07-24T22:37:41.939Z,101393.45
2018-07-24T22:40:11.629Z,101387.80
2018-07-24T22:42:40.038Z,101385.67
2018-07-24T22:45:08.793Z,101391.95
2018-07-24T22:47:37.253Z,101393.31
2018-07-24T22:50:06.415Z,101395.56
2018-07-24T22:52:34.777Z,101396.92
2018-07-24T22:55:03.179Z,101397.47
2018-07-24T22:57:31.546Z,101394.92
2018-07-24T22:59:59.933Z,101401.20
2018-07-24T23:02:28.298Z,101396.95
2018-07-24T23:04:56.693Z,101397.07
2018-07-24T23:07:25.071Z,101397.19
2018-07-24T23:09:53.466Z,101400.88
2018-07-24T23:12:21.840Z,101397.06
2018-07-24T23:14:50.238Z,101390.63
2018-07-24T23:17:18.610Z,101396.45
2018-07-24T23:19:46.997Z,101394.38
2018-07-24T23:22:15.406Z,101395.36
2018-07-24T23:24:44.106Z,101392.41
2018-07-24T23:27:12.505Z,101395.10
2018-07-24T23:29:40.877Z,101395.19
2018-07-24T23:32:09.261Z,101393.95
2018-07-24T23:34:37.633Z,101390.50
2018-07-24T23:37:06.042Z,101392.39
2018-07-24T23:39:34.425Z,101399.08
2018-07-24T23:42:02.817Z,101396.92
2018-07-24T23:44:31.184Z,101396.61
2018-07-24T23:46:59.569Z,101392.72
2018-07-24T23:49:27.934Z,101391.88
2018-07-24T23:51:56.329Z,101393.72
2018-07-24T23:54:24.705Z,101392.47
2018-07-24T23:56:53.158Z,101393.42
2018-07-24T23:59:21.503Z,101393.06
